Umm Slal — V7PW3 — position and weather

sailwx.info

Track history (hours):
 
Tides and Currents Weather Stations Pressure Air Temp Water Temp Dewpoint Dewpoint Depression Visibility Wind Speed Wind Dir Waves Ship Positions

Umm Slal

Last reported at 2017-Aug-26 20:49 UTC. Time now 2017-Sep-24 12:03 UTC.
Position N 25°56' W 015°34'.
Warning: this ship's position is 28 days out of date.

Length 345 m; draft 9.3 m.

Type: Ship (hazmat cat D). MMSI: 538003300.

Date/timePositionNaut miles runAvg speedWind from/ knotsBaromVisibWave heightAir tempDewpointWater temp
2017-Aug-26 20:49N 25°56' W 015°34'615.9
2017-Aug-26 20:27N 26°00' W 015°30'815.4
2017-Aug-26 19:55N 26°07' W 015°25'1215.3
2017-Aug-26 19:09N 26°16' W 015°17'315.3
2017-Aug-26 18:56N 26°19' W 015°14'715.1
2017-Aug-26 18:28N 26°24' W 015°10'815.1
2017-Aug-26 17:57N 26°31' W 015°04'814.8
2017-Aug-26 17:26N 26°37' W 014°59'614.7
2017-Aug-26 17:00N 26°42' W 014°55'6714.5
2017-Aug-26 12:25N 27°34' W 014°08'715.5
2017-Aug-26 11:59N 27°39' W 014°03'916.0
2017-Aug-26 11:26N 27°45' W 013°56'716.8
2017-Aug-26 11:00N 27°50' W 013°50'916.6
2017-Aug-26 10:29N 27°57' W 013°44'816.3
2017-Aug-26 10:00N 28°03' W 013°39'816.3
2017-Aug-26 09:30N 28°10' W 013°34'816.4
2017-Aug-26 09:01N 28°17' W 013°29'816.0
2017-Aug-26 08:31N 28°24' W 013°24'816.0
2017-Aug-26 08:00N 28°30' W 013°19'816.3
2017-Aug-26 07:31N 28°37' W 013°14'816.3
2017-Aug-26 07:00N 28°44' W 013°10'915.9
2017-Aug-26 06:27N 28°52' W 013°05'715.7
2017-Aug-26 06:00N 28°58' W 013°00'815.6
2017-Aug-26 05:31N 29°04' W 012°55'815.6
2017-Aug-26 05:00N 29°11' W 012°51'815.8
2017-Aug-26 04:29N 29°18' W 012°45'815.8
2017-Aug-26 03:57N 29°25' W 012°40'715.9
2017-Aug-26 03:30N 29°31' W 012°35'1416.2
2017-Aug-26 02:39N 29°42' W 012°26'216.3
2017-Aug-26 02:30N 29°44' W 012°25'916.0
2017-Aug-26 01:58N 29°51' W 012°19'5616.4
2017-Aug-25 22:31N 30°37' W 011°41'2516.3
2017-Aug-25 21:00N 30°57' W 011°24'1516.1
2017-Aug-25 20:03N 31°10' W 011°14'116.1
2017-Aug-25 20:00N 31°10' W 011°13'1216.4
2017-Aug-25 19:18N 31°19' W 011°05'517.2
2017-Aug-25 19:00N 31°23' W 011°02'816.9
2017-Aug-25 18:30N 31°30' W 010°56'816.0
2017-Aug-25 18:00N 31°37' W 010°50'816.3
2017-Aug-25 17:31N 31°43' W 010°45'816.1
2017-Aug-25 17:00N 31°50' W 010°40'916.0
2017-Aug-25 16:28N 31°58' W 010°34'816.2
2017-Aug-25 15:58N 32°04' W 010°29'715.3
2017-Aug-25 15:30N 32°10' W 010°24'816.2
2017-Aug-25 15:00N 32°17' W 010°19'816.2
2017-Aug-25 14:30N 32°22' W 010°12'1616.3
2017-Aug-25 13:30N 32°36' W 010°02'816.2
2017-Aug-25 13:00N 32°43' W 009°56'816.4
2017-Aug-25 12:30N 32°49' W 009°51'816.0
2017-Aug-25 12:00N 32°55' W 009°44'916.3
2017-Aug-25 11:29N 33°01' W 009°36'2516.3
2017-Aug-25 09:58N 33°18' W 009°15'916.1
2017-Aug-25 09:26N 33°23' W 009°07'916.3
2017-Aug-25 08:51N 33°30' W 008°59'816.1
2017-Aug-25 08:23N 33°35' W 008°53'1515.9
2017-Aug-25 07:28N 33°45' W 008°40'715.5
2017-Aug-25 07:00N 33°51' W 008°34'815.4
2017-Aug-25 06:28N 33°56' W 008°27'3315.3
2017-Aug-25 04:18N 34°20' W 007°58'415.1
2017-Aug-25 04:01N 34°23' W 007°55'2714.9
2017-Aug-25 02:13N 34°41' W 007°31'315.0
2017-Aug-25 02:00N 34°43' W 007°28'815.2
2017-Aug-25 01:30N 34°49' W 007°21'715.3
2017-Aug-25 01:00N 34°54' W 007°15'714.9
2017-Aug-25 00:30N 34°59' W 007°09'815.3
2017-Aug-25 00:00N 35°04' W 007°02'815.6
2017-Aug-24 23:30N 35°10' W 006°55'1716.0
2017-Aug-24 22:26N 35°22' W 006°41'716.2
2017-Aug-24 22:00N 35°28' W 006°35'816.3
2017-Aug-24 21:30N 35°33' W 006°28'5013.6
2017-Aug-24 17:48N 35°58' W 005°34'412.4
2017-Aug-24 17:30N 35°59' W 005°30'712.5
2017-Aug-24 16:55N 36°03' W 005°22'3 2.0
2017-Aug-24 15:35N 36°06' W 005°22'0 0.1
2017-Aug-24 15:06N 36°06' W 005°22'0 0.1
2017-Aug-24 15:00N 36°06' W 005°22'0 0.1
2017-Aug-24 14:30N 36°06' W 005°22'0 0.1
2017-Aug-24 14:00N 36°06' W 005°22'0 0.0
2017-Aug-24 13:28N 36°06' W 005°22'0 0.1
2017-Aug-24 12:58N 36°06' W 005°22'0 0.0
2017-Aug-24 12:28N 36°06' W 005°22'0 0.0
2017-Aug-24 11:17N 36°06' W 005°22'0 0.4
2017-Aug-24 10:56N 36°06' W 005°22'0 0.2
2017-Aug-24 10:30N 36°06' W 005°22'0 0.0
2017-Aug-24 10:00N 36°06' W 005°22'0 0.0
2017-Aug-24 09:30N 36°06' W 005°22'0 0.0
2017-Aug-24 09:01N 36°06' W 005°22'0 0.1
2017-Aug-24 08:28N 36°06' W 005°22'0 0.1
2017-Aug-24 07:58N 36°06' W 005°22'0 0.3
2017-Aug-24 07:28N 36°06' W 005°22'0 0.1
2017-Aug-24 05:39N 36°06' W 005°21'0 0.1
2017-Aug-24 05:27N 36°06' W 005°21'0 0.0
2017-Aug-24 04:57N 36°06' W 005°21'0 0.0
2017-Aug-24 04:27N 36°06' W 005°21'0 0.1
2017-Aug-24 03:58N 36°06' W 005°22'0 0.1
2017-Aug-24 03:28N 36°06' W 005°22'0 0.1
2017-Aug-24 02:58N 36°06' W 005°22'0 0.0
2017-Aug-24 02:23N 36°06' W 005°22'0 0.1
2017-Aug-24 01:59N 36°06' W 005°22'0 0.1
2017-Aug-24 01:29N 36°06' W 005°22'0 0.1
2017-Aug-24 01:00N 36°06' W 005°22'0 0.1
2017-Aug-24 00:30N 36°06' W 005°22'0 0.2
2017-Aug-24 00:00N 36°06' W 005°22'1 1.2
2017-Aug-23 23:28N 36°06' W 005°21'3 5.7
2017-Aug-23 23:00N 36°03' W 005°22'3 6.9
2017-Aug-23 22:30N 35°60' W 005°22'510.7
2017-Aug-23 22:00N 35°57' W 005°28'7714.1
2017-Aug-23 16:33N 36°03' W 007°03'116.1
2017-Aug-23 16:29N 36°03' W 007°04'816.0
2017-Aug-23 16:00N 36°05' W 007°14'916.1
2017-Aug-23 15:28N 36°07' W 007°24'716.0
2017-Aug-23 15:00N 36°09' W 007°33'816.0
2017-Aug-23 14:30N 36°10' W 007°43'1616.1
2017-Aug-23 13:30N 36°14' W 008°02'816.1
2017-Aug-23 13:00N 36°16' W 008°12'816.1
2017-Aug-23 12:29N 36°18' W 008°22'816.1
2017-Aug-23 12:00N 36°20' W 008°31'815.8
2017-Aug-23 11:30N 36°22' W 008°41'1216.0
2017-Aug-23 10:45N 36°25' W 008°55'516.0
2017-Aug-23 10:26N 36°27' W 009°01'715.7
2017-Aug-23 10:00N 36°28' W 009°09'815.9
2017-Aug-23 09:29N 36°31' W 009°19'815.8
2017-Aug-23 08:58N 36°36' W 009°26'815.2
2017-Aug-23 08:28N 36°42' W 009°33'714.9
2017-Aug-23 08:00N 36°48' W 009°38'915.4
2017-Aug-23 07:24N 36°57' W 009°41'615.5
2017-Aug-23 07:00N 37°03' W 009°43'4 8.5
2017-Aug-23 06:30N 37°07' W 009°44'4 9.0
2017-Aug-23 06:00N 37°11' W 009°46'815.6
2017-Aug-23 05:29N 37°19' W 009°48'715.6
2017-Aug-23 05:01N 37°26' W 009°51'815.4
2017-Aug-23 04:28N 37°34' W 009°53'715.3
2017-Aug-23 04:00N 37°41' W 009°56'815.3
2017-Aug-23 03:29N 37°49' W 009°58'715.3
2017-Aug-23 03:01N 37°56' W 010°00'815.3
2017-Aug-23 02:30N 38°03' W 010°02'815.4
2017-Aug-23 02:00N 38°11' W 010°05'815.4
2017-Aug-23 01:31N 38°18' W 010°07'815.5
2017-Aug-23 01:01N 38°26' W 010°10'815.5
2017-Aug-23 00:30N 38°33' W 010°11'815.8
2017-Aug-23 00:01N 38°41' W 010°12'815.9
2017-Aug-22 23:30N 38°49' W 010°12'815.5
2017-Aug-22 23:00N 38°57' W 010°13'815.8
2017-Aug-22 22:31N 39°05' W 010°13'815.7
2017-Aug-22 22:00N 39°13' W 010°13'915.8
2017-Aug-22 21:26N 39°22' W 010°13'716.2
2017-Aug-22 21:00N 39°29' W 010°13'816.0
2017-Aug-22 20:31N 39°36' W 010°13'816.0
2017-Aug-22 20:00N 39°44' W 010°12'816.0
2017-Aug-22 19:30N 39°52' W 010°12'815.7
2017-Aug-22 19:01N 40°00' W 010°13'815.6
2017-Aug-22 18:30N 40°08' W 010°14'815.8
2017-Aug-22 18:00N 40°16' W 010°15'815.8
2017-Aug-22 17:29N 40°24' W 010°15'815.9
2017-Aug-22 16:57N 40°33' W 010°16'715.7
2017-Aug-22 16:30N 40°40' W 010°17'1815.8
2017-Aug-22 15:20N 40°58' W 010°18'515.7
2017-Aug-22 15:00N 41°03' W 010°19'815.6
2017-Aug-22 14:30N 41°11' W 010°19'815.3
2017-Aug-22 14:01N 41°19' W 010°20'815.2
2017-Aug-22 13:31N 41°26' W 010°20'3415.4
2017-Aug-22 11:18N 42°00' W 010°22'1315.6
2017-Aug-22 10:27N 42°13' W 010°23'715.7
2017-Aug-22 10:01N 42°20' W 010°23'1415.5
2017-Aug-22 09:04N 42°35' W 010°24'115.5
2017-Aug-22 09:00N 42°36' W 010°24'3915.4
2017-Aug-22 06:28N 43°15' W 010°25'3014.5
2017-Aug-22 04:25N 43°44' W 010°15'1114.6
2017-Aug-22 03:42N 43°54' W 010°11'714.2
2017-Aug-22 03:13N 44°00' W 010°08'414.1
2017-Aug-22 02:57N 44°04' W 010°06'614.3
2017-Aug-22 02:30N 44°10' W 010°03'714.4
2017-Aug-22 02:00N 44°17' W 010°00'31814.4
2017-Aug-21 03:51N 49°20' W 007°38'413.1
2017-Aug-21 03:30N 49°24' W 007°36'713.0
2017-Aug-21 03:00N 49°30' W 007°32'613.0
2017-Aug-21 02:30N 49°36' W 007°28'612.8
2017-Aug-21 02:01N 49°42' W 007°24'712.9
2017-Aug-21 01:30N 49°48' W 007°21'713.1
2017-Aug-21 01:01N 49°54' W 007°18'713.2
2017-Aug-21 00:30N 50°00' W 007°14'913.6
2017-Aug-20 23:52N 50°08' W 007°09'1114.0
2017-Aug-20 23:07N 50°17' W 006°60'3714.8
2017-Aug-20 20:38N 50°45' W 006°22'215.1
2017-Aug-20 20:29N 50°46' W 006°20'715.0
2017-Aug-20 20:01N 50°52' W 006°12'814.8
2017-Aug-20 19:27N 50°58' W 006°04'1314.2
2017-Aug-20 18:33N 51°08' W 005°51'2413.6
2017-Aug-20 16:47N 51°27' W 005°27'513.4
2017-Aug-20 16:27N 51°31' W 005°23'613.8
2017-Aug-20 16:01N 51°35' W 005°17'611.0
2017-Aug-20 15:31N 51°39' W 005°11'4 7.0
2017-Aug-20 15:01N 51°42' W 005°07'1 1.8
2017-Aug-20 14:29N 51°42' W 005°05'0 0.1
2017-Aug-20 13:59N 51°42' W 005°05'0 0.0
2017-Aug-20 13:30N 51°42' W 005°05'0 0.0
2017-Aug-20 13:00N 51°42' W 005°05'0 0.0
2017-Aug-20 12:30N 51°42' W 005°05'0 0.0
2017-Aug-20 11:58N 51°42' W 005°05'0 0.0
2017-Aug-20 11:28N 51°42' W 005°05'0 0.0
2017-Aug-20 10:58N 51°42' W 005°05'0 0.0
2017-Aug-20 10:29N 51°42' W 005°05'0 0.0
2017-Aug-20 09:59N 51°42' W 005°05'0 0.0
2017-Aug-20 09:29N 51°42' W 005°05'0 0.0
2017-Aug-20 09:00N 51°42' W 005°05'0 0.0
2017-Aug-20 08:30N 51°42' W 005°05'0 0.0
2017-Aug-20 08:00N 51°42' W 005°05'0 0.0
2017-Aug-20 07:28N 51°42' W 005°05'0 0.0
2017-Aug-20 06:58N 51°42' W 005°05'0 0.0
2017-Aug-20 06:28N 51°42' W 005°05'0 0.0
2017-Aug-20 05:59N 51°42' W 005°05'0 0.0
2017-Aug-20 05:29N 51°42' W 005°05'0 0.0
2017-Aug-20 04:59N 51°42' W 005°05'0 0.0
2017-Aug-20 04:30N 51°42' W 005°05'0 0.0
2017-Aug-20 04:00N 51°42' W 005°05'0 0.0
2017-Aug-20 03:30N 51°42' W 005°05'0 0.0
2017-Aug-20 02:58N 51°42' W 005°05'0 0.0
2017-Aug-20 02:28N 51°42' W 005°05'0 0.0
2017-Aug-20 01:58N 51°42' W 005°05'0 0.0
2017-Aug-20 01:29N 51°42' W 005°05'0 0.0
2017-Aug-20 00:59N 51°42' W 005°05'0 0.0
2017-Aug-20 00:29N 51°42' W 005°05'0 0.0
2017-Aug-20 00:00N 51°42' W 005°05'0 0.0
2017-Aug-19 23:27N 51°42' W 005°05'0 0.0
2017-Aug-19 23:00N 51°42' W 005°05'0 0.0
2017-Aug-19 22:28N 51°42' W 005°05'0 0.0
2017-Aug-19 21:58N 51°42' W 005°05'0 0.0
2017-Aug-19 21:28N 51°42' W 005°05'0 0.0
2017-Aug-19 20:59N 51°42' W 005°05'0 0.0
2017-Aug-19 20:29N 51°42' W 005°05'0 0.0
2017-Aug-19 19:59N 51°42' W 005°05'0 0.0
2017-Aug-19 19:30N 51°42' W 005°05'0 0.0
2017-Aug-19 19:00N 51°42' W 005°05'0 0.0
2017-Aug-19 18:30N 51°42' W 005°05'0 0.0
2017-Aug-19 17:58N 51°42' W 005°05'0 0.0
2017-Aug-19 17:28N 51°42' W 005°05'0 0.0
2017-Aug-19 16:58N 51°42' W 005°05'0 0.0
2017-Aug-19 16:29N 51°42' W 005°05'0 0.0
2017-Aug-19 15:59N 51°42' W 005°05'0 0.0
2017-Aug-19 15:29N 51°42' W 005°05'0 0.0
2017-Aug-19 14:57N 51°42' W 005°05'0 0.0
2017-Aug-19 14:00N 51°42' W 005°05'0 0.0
2017-Aug-19 13:28N 51°42' W 005°05'0 0.0
2017-Aug-19 12:58N 51°42' W 005°05'0 0.0
2017-Aug-19 12:28N 51°42' W 005°05'0 0.0
2017-Aug-19 11:59N 51°42' W 005°05'0 0.0
2017-Aug-19 11:29N 51°42' W 005°05'0 0.0
2017-Aug-19 10:59N 51°42' W 005°05'0 0.0
2017-Aug-19 10:30N 51°42' W 005°05'0 0.0
2017-Aug-19 10:00N 51°42' W 005°05'0 0.0
2017-Aug-19 09:30N 51°42' W 005°05'0 0.0
2017-Aug-19 08:58N 51°42' W 005°05'0 0.0
2017-Aug-19 08:28N 51°42' W 005°05'0 0.0
2017-Aug-19 07:58N 51°42' W 005°05'0 0.0
2017-Aug-19 07:29N 51°42' W 005°05'0 0.0
2017-Aug-19 06:59N 51°42' W 005°05'0 0.0
2017-Aug-19 06:29N 51°42' W 005°05'0 0.0
2017-Aug-19 06:00N 51°42' W 005°05'0 0.0
2017-Aug-19 05:30N 51°42' W 005°05'0 0.0
2017-Aug-19 05:00N 51°42' W 005°05'0 0.0
2017-Aug-19 04:30N 51°42' W 005°05'1 1.1
2017-Aug-19 04:00N 51°42' W 005°06'3 5.3
2017-Aug-19 03:30N 51°41' W 005°10'4 8.1
2017-Aug-19 03:00N 51°37' W 005°13'5 9.4
2017-Aug-19 02:30N 51°34' W 005°18'612.5
2017-Aug-19 02:00N 51°29' W 005°25'612.7
2017-Aug-19 01:30N 51°25' W 005°33'5 9.4
2017-Aug-19 01:00N 51°23' W 005°40'2 4.3
2017-Aug-19 00:30N 51°24' W 005°37'2 4.3
2017-Aug-19 00:00N 51°26' W 005°34'2 4.3
2017-Aug-18 23:30N 51°27' W 005°31'2 4.4
2017-Aug-18 23:00N 51°28' W 005°29'2 4.2
2017-Aug-18 22:30N 51°29' W 005°26'2 4.0
2017-Aug-18 22:00N 51°30' W 005°23'2 3.6
2017-Aug-18 21:30N 51°28' W 005°24'713.7
2017-Aug-18 21:00N 51°23' W 005°30'713.7
2017-Aug-18 20:30N 51°17' W 005°37'713.5
2017-Aug-18 20:00N 51°12' W 005°43'  
Track history (hours):
 
Tides and Currents Weather Stations Pressure Air Temp Water Temp Dewpoint Dewpoint Depression Visibility Wind Speed Wind Dir Waves Ship Positions

Umm Slal

Last reported at 2017-Aug-26 20:49 UTC. Time now 2017-Sep-24 12:04 UTC.
Position N 25°56' W 015°34'.
Warning: this ship's position is 28 days out of date.

Length 345 m; draft 9.3 m.

Type: Ship (hazmat cat D). MMSI: 538003300.

Date/timePositionNaut miles runAvg speedWind from/ knotsBaromVisibWave heightAir tempDewpointWater temp
2017-Aug-26 20:49N 25°56' W 015°34'615.9
2017-Aug-26 20:27N 26°00' W 015°30'815.4
2017-Aug-26 19:55N 26°07' W 015°25'1215.3
2017-Aug-26 19:09N 26°16' W 015°17'315.3
2017-Aug-26 18:56N 26°19' W 015°14'715.1
2017-Aug-26 18:28N 26°24' W 015°10'815.1
2017-Aug-26 17:57N 26°31' W 015°04'814.8
2017-Aug-26 17:26N 26°37' W 014°59'614.7
2017-Aug-26 17:00N 26°42' W 014°55'6714.5
2017-Aug-26 12:25N 27°34' W 014°08'715.5
2017-Aug-26 11:59N 27°39' W 014°03'916.0
2017-Aug-26 11:26N 27°45' W 013°56'716.8
2017-Aug-26 11:00N 27°50' W 013°50'916.6
2017-Aug-26 10:29N 27°57' W 013°44'816.3
2017-Aug-26 10:00N 28°03' W 013°39'816.3
2017-Aug-26 09:30N 28°10' W 013°34'816.4
2017-Aug-26 09:01N 28°17' W 013°29'816.0
2017-Aug-26 08:31N 28°24' W 013°24'816.0
2017-Aug-26 08:00N 28°30' W 013°19'816.3
2017-Aug-26 07:31N 28°37' W 013°14'816.3
2017-Aug-26 07:00N 28°44' W 013°10'915.9
2017-Aug-26 06:27N 28°52' W 013°05'715.7
2017-Aug-26 06:00N 28°58' W 013°00'815.6
2017-Aug-26 05:31N 29°04' W 012°55'815.6
2017-Aug-26 05:00N 29°11' W 012°51'815.8
2017-Aug-26 04:29N 29°18' W 012°45'815.8
2017-Aug-26 03:57N 29°25' W 012°40'715.9
2017-Aug-26 03:30N 29°31' W 012°35'1416.2
2017-Aug-26 02:39N 29°42' W 012°26'216.3
2017-Aug-26 02:30N 29°44' W 012°25'916.0
2017-Aug-26 01:58N 29°51' W 012°19'5616.4
2017-Aug-25 22:31N 30°37' W 011°41'2516.3
2017-Aug-25 21:00N 30°57' W 011°24'1516.1
2017-Aug-25 20:03N 31°10' W 011°14'116.1
2017-Aug-25 20:00N 31°10' W 011°13'1216.4
2017-Aug-25 19:18N 31°19' W 011°05'517.2
2017-Aug-25 19:00N 31°23' W 011°02'816.9
2017-Aug-25 18:30N 31°30' W 010°56'816.0
2017-Aug-25 18:00N 31°37' W 010°50'816.3
2017-Aug-25 17:31N 31°43' W 010°45'816.1
2017-Aug-25 17:00N 31°50' W 010°40'916.0
2017-Aug-25 16:28N 31°58' W 010°34'816.2
2017-Aug-25 15:58N 32°04' W 010°29'715.3
2017-Aug-25 15:30N 32°10' W 010°24'816.2
2017-Aug-25 15:00N 32°17' W 010°19'816.2
2017-Aug-25 14:30N 32°22' W 010°12'1616.3
2017-Aug-25 13:30N 32°36' W 010°02'816.2
2017-Aug-25 13:00N 32°43' W 009°56'816.4
2017-Aug-25 12:30N 32°49' W 009°51'816.0
2017-Aug-25 12:00N 32°55' W 009°44'916.3
2017-Aug-25 11:29N 33°01' W 009°36'2516.3
2017-Aug-25 09:58N 33°18' W 009°15'916.1
2017-Aug-25 09:26N 33°23' W 009°07'916.3
2017-Aug-25 08:51N 33°30' W 008°59'816.1
2017-Aug-25 08:23N 33°35' W 008°53'1515.9
2017-Aug-25 07:28N 33°45' W 008°40'715.5
2017-Aug-25 07:00N 33°51' W 008°34'815.4
2017-Aug-25 06:28N 33°56' W 008°27'3315.3
2017-Aug-25 04:18N 34°20' W 007°58'415.1
2017-Aug-25 04:01N 34°23' W 007°55'2714.9
2017-Aug-25 02:13N 34°41' W 007°31'315.0
2017-Aug-25 02:00N 34°43' W 007°28'815.2
2017-Aug-25 01:30N 34°49' W 007°21'715.3
2017-Aug-25 01:00N 34°54' W 007°15'714.9
2017-Aug-25 00:30N 34°59' W 007°09'815.3
2017-Aug-25 00:00N 35°04' W 007°02'815.6
2017-Aug-24 23:30N 35°10' W 006°55'1716.0
2017-Aug-24 22:26N 35°22' W 006°41'716.2
2017-Aug-24 22:00N 35°28' W 006°35'816.3
2017-Aug-24 21:30N 35°33' W 006°28'5013.6
2017-Aug-24 17:48N 35°58' W 005°34'412.4
2017-Aug-24 17:30N 35°59' W 005°30'712.5
2017-Aug-24 16:55N 36°03' W 005°22'3 2.0
2017-Aug-24 15:35N 36°06' W 005°22'0 0.1
2017-Aug-24 15:06N 36°06' W 005°22'0 0.1
2017-Aug-24 15:00N 36°06' W 005°22'0 0.1
2017-Aug-24 14:30N 36°06' W 005°22'0 0.1
2017-Aug-24 14:00N 36°06' W 005°22'0 0.0
2017-Aug-24 13:28N 36°06' W 005°22'0 0.1
2017-Aug-24 12:58N 36°06' W 005°22'0 0.0
2017-Aug-24 12:28N 36°06' W 005°22'0 0.0
2017-Aug-24 11:17N 36°06' W 005°22'0 0.4
2017-Aug-24 10:56N 36°06' W 005°22'0 0.2
2017-Aug-24 10:30N 36°06' W 005°22'0 0.0
2017-Aug-24 10:00N 36°06' W 005°22'0 0.0
2017-Aug-24 09:30N 36°06' W 005°22'0 0.0
2017-Aug-24 09:01N 36°06' W 005°22'0 0.1
2017-Aug-24 08:28N 36°06' W 005°22'0 0.1
2017-Aug-24 07:58N 36°06' W 005°22'0 0.3
2017-Aug-24 07:28N 36°06' W 005°22'0 0.1
2017-Aug-24 05:39N 36°06' W 005°21'0 0.1
2017-Aug-24 05:27N 36°06' W 005°21'0 0.0
2017-Aug-24 04:57N 36°06' W 005°21'0 0.0
2017-Aug-24 04:27N 36°06' W 005°21'0 0.1
2017-Aug-24 03:58N 36°06' W 005°22'0 0.1
2017-Aug-24 03:28N 36°06' W 005°22'0 0.1
2017-Aug-24 02:58N 36°06' W 005°22'0 0.0
2017-Aug-24 02:23N 36°06' W 005°22'0 0.1
2017-Aug-24 01:59N 36°06' W 005°22'0 0.1
2017-Aug-24 01:29N 36°06' W 005°22'0 0.1
2017-Aug-24 01:00N 36°06' W 005°22'0 0.1
2017-Aug-24 00:30N 36°06' W 005°22'0 0.2
2017-Aug-24 00:00N 36°06' W 005°22'1 1.2
2017-Aug-23 23:28N 36°06' W 005°21'3 5.7
2017-Aug-23 23:00N 36°03' W 005°22'3 6.9
2017-Aug-23 22:30N 35°60' W 005°22'510.7
2017-Aug-23 22:00N 35°57' W 005°28'7714.1
2017-Aug-23 16:33N 36°03' W 007°03'116.1
2017-Aug-23 16:29N 36°03' W 007°04'816.0
2017-Aug-23 16:00N 36°05' W 007°14'916.1
2017-Aug-23 15:28N 36°07' W 007°24'716.0
2017-Aug-23 15:00N 36°09' W 007°33'816.0
2017-Aug-23 14:30N 36°10' W 007°43'1616.1
2017-Aug-23 13:30N 36°14' W 008°02'816.1
2017-Aug-23 13:00N 36°16' W 008°12'816.1
2017-Aug-23 12:29N 36°18' W 008°22'816.1
2017-Aug-23 12:00N 36°20' W 008°31'815.8
2017-Aug-23 11:30N 36°22' W 008°41'1216.0
2017-Aug-23 10:45N 36°25' W 008°55'516.0
2017-Aug-23 10:26N 36°27' W 009°01'715.7
2017-Aug-23 10:00N 36°28' W 009°09'815.9
2017-Aug-23 09:29N 36°31' W 009°19'815.8
2017-Aug-23 08:58N 36°36' W 009°26'815.2
2017-Aug-23 08:28N 36°42' W 009°33'714.9
2017-Aug-23 08:00N 36°48' W 009°38'915.4
2017-Aug-23 07:24N 36°57' W 009°41'615.5
2017-Aug-23 07:00N 37°03' W 009°43'4 8.5
2017-Aug-23 06:30N 37°07' W 009°44'4 9.0
2017-Aug-23 06:00N 37°11' W 009°46'815.6
2017-Aug-23 05:29N 37°19' W 009°48'715.6
2017-Aug-23 05:01N 37°26' W 009°51'815.4
2017-Aug-23 04:28N 37°34' W 009°53'715.3
2017-Aug-23 04:00N 37°41' W 009°56'815.3
2017-Aug-23 03:29N 37°49' W 009°58'715.3
2017-Aug-23 03:01N 37°56' W 010°00'815.3
2017-Aug-23 02:30N 38°03' W 010°02'815.4
2017-Aug-23 02:00N 38°11' W 010°05'815.4
2017-Aug-23 01:31N 38°18' W 010°07'815.5
2017-Aug-23 01:01N 38°26' W 010°10'815.5
2017-Aug-23 00:30N 38°33' W 010°11'815.8
2017-Aug-23 00:01N 38°41' W 010°12'815.9
2017-Aug-22 23:30N 38°49' W 010°12'815.5
2017-Aug-22 23:00N 38°57' W 010°13'815.8
2017-Aug-22 22:31N 39°05' W 010°13'815.7
2017-Aug-22 22:00N 39°13' W 010°13'915.8
2017-Aug-22 21:26N 39°22' W 010°13'716.2
2017-Aug-22 21:00N 39°29' W 010°13'816.0
2017-Aug-22 20:31N 39°36' W 010°13'816.0
2017-Aug-22 20:00N 39°44' W 010°12'816.0
2017-Aug-22 19:30N 39°52' W 010°12'815.7
2017-Aug-22 19:01N 40°00' W 010°13'815.6
2017-Aug-22 18:30N 40°08' W 010°14'815.8
2017-Aug-22 18:00N 40°16' W 010°15'815.8
2017-Aug-22 17:29N 40°24' W 010°15'815.9
2017-Aug-22 16:57N 40°33' W 010°16'715.7
2017-Aug-22 16:30N 40°40' W 010°17'1815.8
2017-Aug-22 15:20N 40°58' W 010°18'515.7
2017-Aug-22 15:00N 41°03' W 010°19'815.6
2017-Aug-22 14:30N 41°11' W 010°19'815.3
2017-Aug-22 14:01N 41°19' W 010°20'815.2
2017-Aug-22 13:31N 41°26' W 010°20'3415.4
2017-Aug-22 11:18N 42°00' W 010°22'1315.6
2017-Aug-22 10:27N 42°13' W 010°23'715.7
2017-Aug-22 10:01N 42°20' W 010°23'1415.5
2017-Aug-22 09:04N 42°35' W 010°24'115.5
2017-Aug-22 09:00N 42°36' W 010°24'3915.4
2017-Aug-22 06:28N 43°15' W 010°25'3014.5
2017-Aug-22 04:25N 43°44' W 010°15'1114.6
2017-Aug-22 03:42N 43°54' W 010°11'714.2
2017-Aug-22 03:13N 44°00' W 010°08'414.1
2017-Aug-22 02:57N 44°04' W 010°06'614.3
2017-Aug-22 02:30N 44°10' W 010°03'714.4
2017-Aug-22 02:00N 44°17' W 010°00'31814.4
2017-Aug-21 03:51N 49°20' W 007°38'413.1
2017-Aug-21 03:30N 49°24' W 007°36'713.0
2017-Aug-21 03:00N 49°30' W 007°32'613.0
2017-Aug-21 02:30N 49°36' W 007°28'612.8
2017-Aug-21 02:01N 49°42' W 007°24'712.9
2017-Aug-21 01:30N 49°48' W 007°21'713.1
2017-Aug-21 01:01N 49°54' W 007°18'713.2
2017-Aug-21 00:30N 50°00' W 007°14'913.6
2017-Aug-20 23:52N 50°08' W 007°09'1114.0
2017-Aug-20 23:07N 50°17' W 006°60'3714.8
2017-Aug-20 20:38N 50°45' W 006°22'215.1
2017-Aug-20 20:29N 50°46' W 006°20'715.0
2017-Aug-20 20:01N 50°52' W 006°12'814.8
2017-Aug-20 19:27N 50°58' W 006°04'1314.2
2017-Aug-20 18:33N 51°08' W 005°51'2413.6
2017-Aug-20 16:47N 51°27' W 005°27'513.4
2017-Aug-20 16:27N 51°31' W 005°23'613.8
2017-Aug-20 16:01N 51°35' W 005°17'611.0
2017-Aug-20 15:31N 51°39' W 005°11'4 7.0
2017-Aug-20 15:01N 51°42' W 005°07'1 1.8
2017-Aug-20 14:29N 51°42' W 005°05'0 0.1
2017-Aug-20 13:59N 51°42' W 005°05'0 0.0
2017-Aug-20 13:30N 51°42' W 005°05'0 0.0
2017-Aug-20 13:00N 51°42' W 005°05'0 0.0
2017-Aug-20 12:30N 51°42' W 005°05'0 0.0
2017-Aug-20 11:58N 51°42' W 005°05'0 0.0
2017-Aug-20 11:28N 51°42' W 005°05'0 0.0
2017-Aug-20 10:58N 51°42' W 005°05'0 0.0
2017-Aug-20 10:29N 51°42' W 005°05'0 0.0
2017-Aug-20 09:59N 51°42' W 005°05'0 0.0
2017-Aug-20 09:29N 51°42' W 005°05'0 0.0
2017-Aug-20 09:00N 51°42' W 005°05'0 0.0
2017-Aug-20 08:30N 51°42' W 005°05'0 0.0
2017-Aug-20 08:00N 51°42' W 005°05'0 0.0
2017-Aug-20 07:28N 51°42' W 005°05'0 0.0
2017-Aug-20 06:58N 51°42' W 005°05'0 0.0
2017-Aug-20 06:28N 51°42' W 005°05'0 0.0
2017-Aug-20 05:59N 51°42' W 005°05'0 0.0
2017-Aug-20 05:29N 51°42' W 005°05'0 0.0
2017-Aug-20 04:59N 51°42' W 005°05'0 0.0
2017-Aug-20 04:30N 51°42' W 005°05'0 0.0
2017-Aug-20 04:00N 51°42' W 005°05'0 0.0
2017-Aug-20 03:30N 51°42' W 005°05'0 0.0
2017-Aug-20 02:58N 51°42' W 005°05'0 0.0
2017-Aug-20 02:28N 51°42' W 005°05'0 0.0
2017-Aug-20 01:58N 51°42' W 005°05'0 0.0
2017-Aug-20 01:29N 51°42' W 005°05'0 0.0
2017-Aug-20 00:59N 51°42' W 005°05'0 0.0
2017-Aug-20 00:29N 51°42' W 005°05'0 0.0
2017-Aug-20 00:00N 51°42' W 005°05'0 0.0
2017-Aug-19 23:27N 51°42' W 005°05'0 0.0
2017-Aug-19 23:00N 51°42' W 005°05'0 0.0
2017-Aug-19 22:28N 51°42' W 005°05'0 0.0
2017-Aug-19 21:58N 51°42' W 005°05'0 0.0
2017-Aug-19 21:28N 51°42' W 005°05'0 0.0
2017-Aug-19 20:59N 51°42' W 005°05'0 0.0
2017-Aug-19 20:29N 51°42' W 005°05'0 0.0
2017-Aug-19 19:59N 51°42' W 005°05'0 0.0
2017-Aug-19 19:30N 51°42' W 005°05'0 0.0
2017-Aug-19 19:00N 51°42' W 005°05'0 0.0
2017-Aug-19 18:30N 51°42' W 005°05'0 0.0
2017-Aug-19 17:58N 51°42' W 005°05'0 0.0
2017-Aug-19 17:28N 51°42' W 005°05'0 0.0
2017-Aug-19 16:58N 51°42' W 005°05'0 0.0
2017-Aug-19 16:29N 51°42' W 005°05'0 0.0
2017-Aug-19 15:59N 51°42' W 005°05'0 0.0
2017-Aug-19 15:29N 51°42' W 005°05'0 0.0
2017-Aug-19 14:57N 51°42' W 005°05'0 0.0
2017-Aug-19 14:00N 51°42' W 005°05'0 0.0
2017-Aug-19 13:28N 51°42' W 005°05'0 0.0
2017-Aug-19 12:58N 51°42' W 005°05'0 0.0
2017-Aug-19 12:28N 51°42' W 005°05'0 0.0
2017-Aug-19 11:59N 51°42' W 005°05'0 0.0
2017-Aug-19 11:29N 51°42' W 005°05'0 0.0
2017-Aug-19 10:59N 51°42' W 005°05'0 0.0
2017-Aug-19 10:30N 51°42' W 005°05'0 0.0
2017-Aug-19 10:00N 51°42' W 005°05'0 0.0
2017-Aug-19 09:30N 51°42' W 005°05'0 0.0
2017-Aug-19 08:58N 51°42' W 005°05'0 0.0
2017-Aug-19 08:28N 51°42' W 005°05'0 0.0
2017-Aug-19 07:58N 51°42' W 005°05'0 0.0
2017-Aug-19 07:29N 51°42' W 005°05'0 0.0
2017-Aug-19 06:59N 51°42' W 005°05'0 0.0
2017-Aug-19 06:29N 51°42' W 005°05'0 0.0
2017-Aug-19 06:00N 51°42' W 005°05'0 0.0
2017-Aug-19 05:30N 51°42' W 005°05'0 0.0
2017-Aug-19 05:00N 51°42' W 005°05'0 0.0
2017-Aug-19 04:30N 51°42' W 005°05'1 1.1
2017-Aug-19 04:00N 51°42' W 005°06'3 5.3
2017-Aug-19 03:30N 51°41' W 005°10'4 8.1
2017-Aug-19 03:00N 51°37' W 005°13'5 9.4
2017-Aug-19 02:30N 51°34' W 005°18'612.5
2017-Aug-19 02:00N 51°29' W 005°25'612.7
2017-Aug-19 01:30N 51°25' W 005°33'5 9.4
2017-Aug-19 01:00N 51°23' W 005°40'2 4.3
2017-Aug-19 00:30N 51°24' W 005°37'2 4.3
2017-Aug-19 00:00N 51°26' W 005°34'2 4.3
2017-Aug-18 23:30N 51°27' W 005°31'2 4.4
2017-Aug-18 23:00N 51°28' W 005°29'2 4.2
2017-Aug-18 22:30N 51°29' W 005°26'2 4.0
2017-Aug-18 22:00N 51°30' W 005°23'2 3.6
2017-Aug-18 21:30N 51°28' W 005°24'713.7
2017-Aug-18 21:00N 51°23' W 005°30'713.7
2017-Aug-18 20:30N 51°17' W 005°37'713.5
2017-Aug-18 20:00N 51°12' W 005°43'  

Dump ship's entire track history